createdAt,value
2023-05-01T00:00:23.833Z,2.50
2023-05-01T00:01:23.799Z,2.20
2023-05-01T00:02:23.864Z,2.30
2023-05-01T00:03:23.855Z,2.60
2023-05-01T00:04:23.842Z,2.40
2023-05-01T00:05:23.761Z,2.20
2023-05-01T00:06:23.776Z,2.30
2023-05-01T00:07:23.726Z,2.30
2023-05-01T00:08:44.723Z,1.80
2023-05-01T00:09:23.705Z,2.40
2023-05-01T00:10:23.678Z,2.30
2023-05-01T00:11:23.663Z,2.30
2023-05-01T00:12:23.667Z,2.40
2023-05-01T00:13:23.637Z,2.30
2023-05-01T00:14:23.645Z,2.30
2023-05-01T00:15:23.621Z,2.20
2023-05-01T00:16:23.649Z,2.10
2023-05-01T00:17:23.595Z,2.20
2023-05-01T00:18:23.579Z,2.20
2023-05-01T00:19:23.577Z,2.20
2023-05-01T00:20:23.574Z,2.00
2023-05-01T00:21:23.544Z,2.10
2023-05-01T00:22:23.520Z,2.10
2023-05-01T00:23:23.498Z,2.30
2023-05-01T00:24:23.512Z,2.50
2023-05-01T00:25:23.486Z,2.50
2023-05-01T00:26:23.469Z,2.30
2023-05-01T00:27:23.490Z,2.30
2023-05-01T00:28:23.459Z,2.40
2023-05-01T00:29:23.433Z,2.50
2023-05-01T00:30:23.443Z,2.40
2023-05-01T00:31:23.478Z,2.40
2023-05-01T00:32:23.433Z,2.10
2023-05-01T00:33:23.390Z,2.20
2023-05-01T00:34:23.513Z,2.40
2023-05-01T00:35:23.382Z,2.10
2023-05-01T00:36:23.357Z,2.50
2023-05-01T00:37:23.323Z,2.40
2023-05-01T00:38:23.321Z,2.30
2023-05-01T00:39:23.313Z,2.40
2023-05-01T00:40:23.316Z,2.40
2023-05-01T00:41:23.311Z,2.20
2023-05-01T00:42:23.259Z,2.40
2023-05-01T00:43:23.254Z,2.40
2023-05-01T00:44:23.253Z,2.10
2023-05-01T00:45:23.251Z,2.40
2023-05-01T00:46:23.303Z,2.50
2023-05-01T00:47:23.217Z,2.70
2023-05-01T00:48:23.186Z,2.40
2023-05-01T00:49:23.170Z,2.50
2023-05-01T00:50:23.157Z,2.40
2023-05-01T00:51:23.181Z,2.90
2023-05-01T00:52:23.142Z,2.50
2023-05-01T00:53:23.124Z,2.30
2023-05-01T00:54:23.120Z,2.20
2023-05-01T00:55:23.101Z,2.60
2023-05-01T00:56:23.109Z,2.50
2023-05-01T00:57:23.063Z,2.40
2023-05-01T00:58:23.058Z,2.60
2023-05-01T00:59:23.042Z,2.80
2023-05-01T01:00:23.036Z,2.40
2023-05-01T01:01:23.112Z,2.60
2023-05-01T01:02:23.258Z,2.50
2023-05-01T01:03:22.989Z,2.70
2023-05-01T01:04:23.039Z,2.40
2023-05-01T01:05:22.970Z,2.60
2023-05-01T01:06:23.003Z,2.60
2023-05-01T01:07:22.964Z,2.70
2023-05-01T01:08:22.919Z,2.50
2023-05-01T01:09:22.916Z,2.70
2023-05-01T01:10:22.888Z,2.70
2023-05-01T01:11:22.886Z,2.50
2023-05-01T01:12:22.875Z,2.60
2023-05-01T01:13:22.863Z,2.70
2023-05-01T01:14:22.838Z,2.50
2023-05-01T01:15:22.835Z,2.50
2023-05-01T01:16:22.912Z,2.30
2023-05-01T01:17:22.871Z,2.50
2023-05-01T01:18:22.803Z,2.20
2023-05-01T01:19:22.780Z,2.60
2023-05-01T01:20:22.767Z,2.60
2023-05-01T01:21:22.754Z,2.50
2023-05-01T01:22:22.742Z,2.50
2023-05-01T01:23:22.744Z,2.70
2023-05-01T01:24:22.726Z,2.80
2023-05-01T01:25:22.692Z,2.30
2023-05-01T01:26:22.675Z,2.70
2023-05-01T01:27:22.687Z,2.80
2023-05-01T01:28:22.686Z,2.40
2023-05-01T01:29:22.646Z,2.30
2023-05-01T01:30:22.631Z,2.70
2023-05-01T01:31:22.664Z,2.40
2023-05-01T01:32:22.697Z,3.10
2023-05-01T01:33:22.587Z,2.20
2023-05-01T01:34:22.606Z,2.70
2023-05-01T01:35:22.568Z,2.30
2023-05-01T01:36:22.565Z,2.50
2023-05-01T01:37:22.529Z,2.20
2023-05-01T01:38:22.529Z,2.60
2023-05-01T01:39:23.100Z,2.60
2023-05-01T01:40:22.509Z,2.70
2023-05-01T01:41:22.486Z,2.50
2023-05-01T01:42:22.466Z,2.60
2023-05-01T01:43:22.534Z,2.60
2023-05-01T01:44:22.493Z,2.50
2023-05-01T01:45:22.432Z,2.30
2023-05-01T01:46:22.479Z,2.60
2023-05-01T01:47:22.438Z,2.50
2023-05-01T01:48:22.413Z,2.80
2023-05-01T01:49:22.410Z,2.50
2023-05-01T01:50:22.383Z,2.60
2023-05-01T01:51:22.389Z,2.30
2023-05-01T01:52:22.358Z,2.80
2023-05-01T01:53:22.332Z,2.60
2023-05-01T01:54:22.317Z,2.80
2023-05-01T01:55:22.297Z,2.80
2023-05-01T01:56:22.286Z,2.70
2023-05-01T01:57:22.328Z,3.00
2023-05-01T01:58:22.295Z,2.60
2023-05-01T01:59:22.235Z,2.80
2023-05-01T02:00:22.267Z,2.40
2023-05-01T02:01:22.254Z,2.70
2023-05-01T02:02:22.230Z,2.60
2023-05-01T02:03:22.261Z,2.60
2023-05-01T02:04:22.199Z,3.00
2023-05-01T02:05:22.213Z,2.70
2023-05-01T02:06:22.229Z,2.90
2023-05-01T02:07:22.150Z,2.60
2023-05-01T02:08:22.161Z,3.00
2023-05-01T02:09:22.111Z,2.90
2023-05-01T02:10:22.106Z,2.70
2023-05-01T02:11:22.118Z,2.70
2023-05-01T02:12:22.084Z,2.60
2023-05-01T02:13:22.120Z,2.90
2023-05-01T02:14:22.060Z,2.70
2023-05-01T02:15:22.088Z,2.80
2023-05-01T02:16:22.062Z,2.60
2023-05-01T02:17:22.028Z,2.60
2023-05-01T02:18:22.056Z,2.90
2023-05-01T02:19:22.026Z,3.00
2023-05-01T02:20:21.977Z,2.80
2023-05-01T02:21:21.987Z,2.60
2023-05-01T02:22:21.946Z,2.40
2023-05-01T02:23:21.935Z,2.80
2023-05-01T02:24:21.975Z,2.80
2023-05-01T02:25:21.904Z,3.20
2023-05-01T02:26:21.934Z,2.70
2023-05-01T02:27:21.907Z,3.00
2023-05-01T02:28:21.877Z,2.60
2023-05-01T02:29:21.864Z,2.60
2023-05-01T02:30:21.861Z,2.80
2023-05-01T02:31:21.898Z,2.70
2023-05-01T02:32:21.867Z,3.20
2023-05-01T02:33:21.802Z,2.90
2023-05-01T02:34:21.793Z,3.10
2023-05-01T02:35:21.783Z,2.70
2023-05-01T02:36:21.769Z,2.90
2023-05-01T02:37:21.797Z,2.60
2023-05-01T02:38:21.752Z,2.80
2023-05-01T02:39:21.727Z,2.90
2023-05-01T02:40:21.712Z,2.60
2023-05-01T02:41:21.704Z,2.70
2023-05-01T02:42:21.739Z,3.30
2023-05-01T02:43:21.713Z,2.80
2023-05-01T02:44:21.657Z,2.70
2023-05-01T02:45:21.648Z,2.50
2023-05-01T02:46:21.744Z,2.70
2023-05-01T02:47:21.678Z,2.80
2023-05-01T02:48:21.624Z,3.20
2023-05-01T02:49:21.650Z,2.70
2023-05-01T02:50:21.581Z,3.00
2023-05-01T02:51:21.566Z,2.90
2023-05-01T02:52:21.578Z,2.70
2023-05-01T02:53:21.562Z,2.60
2023-05-01T02:54:21.538Z,2.90
2023-05-01T02:55:21.530Z,2.60
2023-05-01T02:56:21.518Z,2.80
2023-05-01T02:57:21.488Z,2.70
2023-05-01T02:58:21.484Z,2.60
2023-05-01T02:59:21.456Z,2.90
2023-05-01T03:00:21.480Z,3.00
2023-05-01T03:01:21.480Z,2.80
2023-05-01T03:02:21.417Z,3.00
2023-05-01T03:03:21.536Z,2.90
2023-05-01T03:04:21.478Z,2.90
2023-05-01T03:05:21.394Z,2.90
2023-05-01T03:06:21.404Z,3.10
2023-05-01T03:07:21.351Z,2.60
2023-05-01T03:08:21.339Z,2.60
2023-05-01T03:09:21.380Z,2.50
2023-05-01T03:10:21.319Z,2.90
2023-05-01T03:11:21.306Z,2.60
2023-05-01T03:12:21.299Z,2.50
2023-05-01T03:13:21.280Z,2.80
2023-05-01T03:14:21.323Z,3.00
2023-05-01T03:15:21.263Z,2.80
2023-05-01T03:16:21.317Z,3.20
2023-05-01T03:17:21.341Z,3.00
2023-05-01T03:18:21.220Z,2.90
2023-05-01T03:19:21.217Z,2.60
2023-05-01T03:20:21.190Z,2.80
2023-05-01T03:21:21.168Z,2.60
2023-05-01T03:22:21.186Z,3.10
2023-05-01T03:23:21.161Z,2.80
2023-05-01T03:24:21.169Z,2.90
2023-05-01T03:25:21.122Z,2.70
2023-05-01T03:26:21.109Z,3.50
2023-05-01T03:27:21.089Z,2.80
2023-05-01T03:28:21.080Z,2.80
2023-05-01T03:29:21.060Z,3.30
2023-05-01T03:30:21.090Z,3.20
2023-05-01T03:31:21.049Z,2.90
2023-05-01T03:32:21.053Z,3.00
2023-05-01T03:33:21.024Z,2.80
2023-05-01T03:34:21.039Z,3.00
2023-05-01T03:35:21.050Z,2.70
2023-05-01T03:36:20.994Z,2.60
2023-05-01T03:37:20.971Z,2.80
2023-05-01T03:38:20.969Z,3.10
2023-05-01T03:39:20.970Z,3.10
2023-05-01T03:40:20.925Z,3.00
2023-05-01T03:41:20.940Z,2.80
2023-05-01T03:42:20.888Z,3.00
2023-05-01T03:43:20.903Z,2.60
2023-05-01T03:44:20.865Z,2.50
2023-05-01T03:45:20.860Z,2.80
2023-05-01T03:46:21.082Z,2.80
2023-05-01T03:47:20.826Z,3.00
2023-05-01T03:48:20.818Z,2.60
2023-05-01T03:49:20.795Z,3.00
2023-05-01T03:50:20.815Z,3.10
2023-05-01T03:51:20.813Z,2.40
2023-05-01T03:52:20.777Z,2.80
2023-05-01T03:53:20.749Z,3.00
2023-05-01T03:54:20.744Z,3.00
2023-05-01T03:55:20.721Z,2.40
2023-05-01T03:56:20.712Z,2.70
2023-05-01T03:57:20.729Z,2.90
2023-05-01T03:58:20.689Z,2.80
2023-05-01T03:59:20.680Z,2.90
2023-05-01T04:00:20.670Z,2.80
2023-05-01T04:01:20.665Z,2.80
2023-05-01T04:02:20.768Z,2.90
2023-05-01T04:03:20.671Z,2.90
2023-05-01T04:04:20.641Z,3.10
2023-05-01T04:05:20.610Z,2.70
2023-05-01T04:06:20.620Z,2.70
2023-05-01T04:07:20.617Z,3.10
2023-05-01T04:08:20.559Z,3.10
2023-05-01T04:09:20.565Z,2.70
2023-05-01T04:10:20.526Z,3.00
2023-05-01T04:11:20.533Z,2.70
2023-05-01T04:12:20.517Z,2.70
2023-05-01T04:13:20.533Z,2.80
2023-05-01T04:14:20.492Z,2.70
2023-05-01T04:15:20.458Z,3.10
2023-05-01T04:16:20.572Z,3.10
2023-05-01T04:17:20.433Z,3.10
2023-05-01T04:18:20.470Z,2.70
2023-05-01T04:19:20.432Z,2.80
2023-05-01T04:20:20.410Z,2.80
2023-05-01T04:21:20.384Z,2.80
2023-05-01T04:22:20.379Z,2.50
2023-05-01T04:23:20.622Z,2.50
2023-05-01T04:24:20.349Z,3.00
2023-05-01T04:25:20.339Z,2.90
2023-05-01T04:26:20.329Z,3.10
2023-05-01T04:27:20.300Z,2.70
2023-05-01T04:28:20.297Z,2.80
2023-05-01T04:29:20.315Z,2.70
2023-05-01T04:30:20.274Z,2.80
2023-05-01T04:31:20.319Z,2.90
2023-05-01T04:32:20.239Z,2.70
2023-05-01T04:33:20.243Z,2.70
2023-05-01T04:34:20.277Z,3.10
2023-05-01T04:35:20.211Z,3.20
2023-05-01T04:36:20.188Z,3.10
2023-05-01T04:37:20.170Z,2.90
2023-05-01T04:38:20.210Z,2.80
2023-05-01T04:39:20.145Z,2.80
2023-05-01T04:40:20.184Z,2.70
2023-05-01T04:41:20.117Z,2.70
2023-05-01T04:42:20.131Z,2.40
2023-05-01T04:43:20.082Z,2.40
2023-05-01T04:44:20.104Z,2.80
2023-05-01T04:45:20.088Z,2.70
2023-05-01T04:46:20.112Z,2.80
2023-05-01T04:47:20.050Z,2.60
2023-05-01T04:48:20.041Z,2.60
2023-05-01T04:49:20.032Z,2.60
2023-05-01T04:50:20.144Z,2.70
2023-05-01T04:51:19.991Z,2.30
2023-05-01T04:52:19.963Z,2.50
2023-05-01T04:53:19.981Z,2.70
2023-05-01T04:54:19.961Z,2.50
2023-05-01T04:55:19.979Z,2.40
2023-05-01T04:56:19.948Z,2.30
2023-05-01T04:57:19.907Z,2.60
2023-05-01T04:58:19.891Z,2.40
2023-05-01T04:59:19.880Z,1.80
2023-05-01T05:00:19.874Z,2.50
2023-05-01T05:01:19.919Z,2.40
2023-05-01T05:02:19.940Z,2.20
2023-05-01T05:03:19.899Z,2.80
2023-05-01T05:04:19.841Z,2.10
2023-05-01T05:05:19.818Z,2.60
2023-05-01T05:06:19.886Z,2.40
2023-05-01T05:07:19.779Z,2.40
2023-05-01T05:08:19.796Z,2.70
2023-05-01T05:09:20.256Z,2.40
2023-05-01T05:10:19.748Z,2.40
2023-05-01T05:11:19.722Z,2.60
2023-05-01T05:12:19.718Z,2.80
2023-05-01T05:13:19.715Z,2.50
2023-05-01T05:14:19.807Z,2.80
2023-05-01T05:15:19.666Z,2.60
2023-05-01T05:16:19.713Z,2.70
2023-05-01T05:17:19.648Z,2.60
2023-05-01T05:18:19.648Z,2.60
2023-05-01T05:19:19.624Z,2.70
2023-05-01T05:20:19.644Z,2.70
2023-05-01T05:21:19.606Z,2.80
2023-05-01T05:22:19.581Z,3.00
2023-05-01T05:23:19.643Z,2.80
2023-05-01T05:24:19.563Z,2.60
2023-05-01T05:25:19.714Z,3.00
2023-05-01T05:26:19.532Z,2.40
2023-05-01T05:27:19.515Z,2.90
2023-05-01T05:28:19.495Z,2.80
2023-05-01T05:29:19.490Z,2.90
2023-05-01T05:30:19.484Z,2.40
2023-05-01T05:31:19.504Z,2.40
2023-05-01T05:32:19.541Z,2.70
2023-05-01T05:33:19.504Z,2.80
2023-05-01T05:34:19.427Z,2.50
2023-05-01T05:35:19.410Z,2.50
2023-05-01T05:36:19.411Z,3.20
2023-05-01T05:37:19.408Z,2.70
2023-05-01T05:38:19.396Z,2.40
2023-05-01T05:39:19.356Z,2.70
2023-05-01T05:40:19.363Z,2.60
2023-05-01T05:41:19.352Z,2.60
2023-05-01T05:42:19.310Z,2.60
2023-05-01T05:43:19.347Z,2.30
2023-05-01T05:44:19.302Z,2.50
2023-05-01T05:45:19.282Z,2.60
2023-05-01T05:46:19.287Z,3.00
2023-05-01T05:47:19.272Z,2.40
2023-05-01T05:48:19.332Z,2.10
2023-05-01T05:49:19.236Z,2.10
2023-05-01T05:50:19.221Z,2.50
2023-05-01T05:51:19.201Z,2.20
2023-05-01T05:52:19.188Z,2.30
2023-05-01T05:53:19.184Z,2.50
2023-05-01T05:54:19.297Z,2.40
2023-05-01T05:55:19.155Z,2.60
2023-05-01T05:56:19.133Z,2.60
2023-05-01T05:57:19.128Z,2.90
2023-05-01T05:58:19.102Z,2.30
2023-05-01T05:59:19.094Z,2.50
2023-05-01T06:00:19.112Z,3.10
2023-05-01T06:01:19.063Z,2.30
2023-05-01T06:02:19.167Z,2.70
2023-05-01T06:03:19.128Z,2.40
2023-05-01T06:04:19.034Z,2.30
2023-05-01T06:05:19.255Z,2.50
2023-05-01T06:06:19.057Z,2.60
2023-05-01T06:07:19.002Z,2.40
2023-05-01T06:08:18.987Z,2.80
2023-05-01T06:09:18.997Z,2.40
2023-05-01T06:10:18.951Z,2.40
2023-05-01T06:11:18.963Z,2.30
2023-05-01T06:12:18.990Z,2.80
2023-05-01T06:13:18.919Z,2.30
2023-05-01T06:14:18.908Z,2.40
2023-05-01T06:15:18.878Z,2.50
2023-05-01T06:16:18.925Z,2.10
2023-05-01T06:17:18.890Z,2.20
2023-05-01T06:18:18.895Z,2.10
2023-05-01T06:19:18.845Z,2.40
2023-05-01T06:20:18.825Z,2.00
2023-05-01T06:21:18.816Z,2.50
2023-05-01T06:22:18.824Z,2.40
2023-05-01T06:23:18.798Z,2.10
2023-05-01T06:24:18.783Z,2.00
2023-05-01T06:25:18.752Z,2.10
2023-05-01T06:26:18.760Z,2.20
2023-05-01T06:27:18.934Z,2.10
2023-05-01T06:28:18.722Z,1.90
2023-05-01T06:29:18.728Z,2.00
2023-05-01T06:30:18.689Z,2.00
2023-05-01T06:31:18.738Z,2.10
2023-05-01T06:32:18.668Z,2.00
2023-05-01T06:33:18.666Z,1.80
2023-05-01T06:34:18.684Z,2.20
2023-05-01T06:35:18.626Z,2.10
2023-05-01T06:36:18.607Z,1.60
2023-05-01T06:37:18.600Z,1.60
2023-05-01T06:38:18.618Z,1.60
2023-05-01T06:39:18.572Z,1.50
2023-05-01T06:40:18.571Z,2.10
2023-05-01T06:41:18.545Z,2.00
2023-05-01T06:42:18.555Z,1.70
2023-05-01T06:43:18.521Z,1.30
2023-05-01T06:44:18.549Z,1.40
2023-05-01T06:45:18.491Z,1.30
2023-05-01T06:46:18.495Z,1.30
2023-05-01T06:47:18.460Z,1.40
2023-05-01T06:48:18.469Z,1.40
2023-05-01T06:49:18.473Z,1.20
2023-05-01T06:50:18.420Z,1.20
2023-05-01T06:51:18.413Z,1.40
2023-05-01T06:52:18.403Z,1.20
2023-05-01T06:53:18.395Z,1.30
2023-05-01T06:54:18.437Z,1.10
2023-05-01T06:55:18.352Z,1.30
2023-05-01T06:56:18.358Z,1.40
2023-05-01T06:57:18.336Z,1.30
2023-05-01T06:58:23.978Z,1.00
2023-05-01T06:59:19.303Z,1.00
2023-05-01T07:00:18.343Z,1.30
2023-05-01T07:01:18.334Z,1.10
2023-05-01T07:02:18.383Z,1.20
2023-05-01T07:03:18.298Z,1.30
2023-05-01T07:04:18.232Z,1.20
2023-05-01T07:05:18.232Z,1.10
2023-05-01T07:06:18.284Z,1.10
2023-05-01T07:07:18.204Z,1.30
2023-05-01T07:08:18.216Z,1.10
2023-05-01T07:09:18.172Z,1.20
2023-05-01T07:10:18.161Z,1.00
2023-05-01T07:11:18.201Z,1.20
2023-05-01T07:12:18.165Z,1.20
2023-05-01T07:13:18.150Z,1.00
2023-05-01T07:14:18.118Z,0.90
2023-05-01T07:15:18.104Z,0.90
2023-05-01T07:16:18.177Z,1.30
2023-05-01T07:17:18.071Z,1.20
2023-05-01T07:18:18.056Z,1.10
2023-05-01T07:19:18.070Z,1.30
2023-05-01T07:20:18.036Z,1.10
2023-05-01T07:21:18.041Z,1.00
2023-05-01T07:22:18.014Z,1.20
2023-05-01T07:23:18.021Z,1.30
2023-05-01T07:24:17.980Z,1.00
2023-05-01T07:25:18.024Z,1.30
2023-05-01T07:26:18.274Z,1.40
2023-05-01T07:27:17.936Z,1.20
2023-05-01T07:28:17.950Z,1.10
2023-05-01T07:29:17.970Z,1.10
2023-05-01T07:30:17.906Z,1.00
2023-05-01T07:31:17.981Z,1.10
2023-05-01T07:32:17.956Z,1.20
2023-05-01T07:33:17.914Z,1.20
2023-05-01T07:34:17.845Z,1.20
2023-05-01T07:35:17.859Z,1.10
2023-05-01T07:36:17.817Z,1.20
2023-05-01T07:37:17.828Z,1.10
2023-05-01T07:38:17.810Z,1.10
2023-05-01T07:39:17.834Z,1.10
2023-05-01T07:40:17.794Z,1.20
2023-05-01T07:41:18.384Z,1.10
2023-05-01T07:42:17.751Z,1.10
2023-05-01T07:43:17.741Z,1.00
2023-05-01T07:44:17.721Z,1.10
2023-05-01T07:45:17.725Z,1.00
2023-05-01T07:46:17.778Z,1.30
2023-05-01T07:47:17.730Z,1.10
2023-05-01T07:48:17.678Z,1.20
2023-05-01T07:49:17.697Z,1.10
2023-05-01T07:50:17.647Z,1.00
2023-05-01T07:51:18.148Z,1.00
2023-05-01T07:52:17.623Z,1.20
2023-05-01T07:53:17.598Z,1.10
2023-05-01T07:54:17.605Z,1.30
2023-05-01T07:55:17.580Z,1.10
2023-05-01T07:56:17.621Z,1.20
2023-05-01T07:57:19.316Z,1.30
2023-05-01T07:58:17.587Z,1.20
2023-05-01T07:59:17.534Z,1.10
2023-05-01T08:00:17.527Z,1.30
2023-05-01T08:01:17.536Z,1.00
2023-05-01T08:02:17.538Z,1.00
2023-05-01T08:03:17.705Z,0.90
2023-05-01T08:04:17.568Z,1.00
2023-05-01T08:05:17.451Z,1.30
2023-05-01T08:06:17.491Z,1.10
2023-05-01T08:07:17.492Z,0.90
2023-05-01T08:08:17.420Z,1.20
2023-05-01T08:09:17.569Z,1.10
2023-05-01T08:10:17.376Z,1.10
2023-05-01T08:11:17.374Z,1.20
2023-05-01T08:12:17.368Z,1.10
2023-05-01T08:13:17.353Z,1.00
2023-05-01T08:14:17.373Z,1.10
2023-05-01T08:15:17.314Z,1.10
2023-05-01T08:16:18.204Z,1.10
2023-05-01T08:17:17.290Z,1.00
2023-05-01T08:18:17.273Z,1.10
2023-05-01T08:19:17.263Z,1.20
2023-05-01T08:20:17.274Z,1.10
2023-05-01T08:21:17.241Z,1.20
2023-05-01T08:22:17.231Z,1.10
2023-05-01T08:23:17.251Z,1.30
2023-05-01T08:24:17.199Z,1.30
2023-05-01T08:25:17.192Z,1.00
2023-05-01T08:26:17.195Z,1.20
2023-05-01T08:27:17.156Z,1.30
2023-05-01T08:28:17.195Z,1.10
2023-05-01T08:29:17.129Z,1.20
2023-05-01T08:30:17.115Z,1.20
2023-05-01T08:31:17.172Z,1.00
2023-05-01T08:32:17.091Z,1.00
2023-05-01T08:33:17.071Z,1.20
2023-05-01T08:34:17.062Z,1.00
2023-05-01T08:35:17.053Z,1.00
2023-05-01T08:36:17.549Z,1.10
2023-05-01T08:37:17.054Z,1.00
2023-05-01T08:38:17.019Z,1.00
2023-05-01T08:39:16.991Z,1.10
2023-05-01T08:40:16.991Z,1.20
2023-05-01T08:41:16.978Z,1.10
2023-05-01T08:42:16.983Z,1.10
2023-05-01T08:43:16.955Z,1.00
2023-05-01T08:44:16.986Z,1.10
2023-05-01T08:45:17.707Z,1.10
2023-05-01T08:46:16.914Z,1.10
2023-05-01T08:47:16.886Z,1.00
2023-05-01T08:48:16.879Z,1.20
2023-05-01T08:49:16.877Z,1.20
2023-05-01T08:50:16.894Z,1.20
2023-05-01T08:51:16.835Z,1.10
2023-05-01T08:52:16.824Z,1.00
2023-05-01T08:53:16.824Z,1.00
2023-05-01T08:54:16.807Z,1.10
2023-05-01T08:55:16.801Z,1.20
2023-05-01T08:56:16.772Z,1.00
2023-05-01T08:57:16.752Z,1.20
2023-05-01T08:58:16.731Z,1.10
2023-05-01T08:59:16.789Z,1.10
2023-05-01T09:00:16.723Z,1.10
2023-05-01T09:01:16.773Z,1.20
2023-05-01T09:02:16.698Z,1.10
2023-05-01T09:03:16.833Z,1.10
2023-05-01T09:04:16.760Z,1.00
2023-05-01T09:05:16.660Z,1.20
2023-05-01T09:06:16.774Z,1.20
2023-05-01T09:07:16.632Z,1.10
2023-05-01T09:08:16.605Z,0.90
2023-05-01T09:09:16.603Z,1.00
2023-05-01T09:10:16.591Z,1.10
2023-05-01T09:11:16.639Z,1.00
2023-05-01T09:12:16.578Z,1.20
2023-05-01T09:13:16.536Z,1.10
2023-05-01T09:14:16.522Z,1.00
2023-05-01T09:15:16.525Z,1.20
2023-05-01T09:16:16.625Z,1.20
2023-05-01T09:17:16.490Z,1.20
2023-05-01T09:18:16.535Z,1.30
2023-05-01T09:19:16.457Z,1.00
2023-05-01T09:20:16.490Z,1.00
2023-05-01T09:21:16.454Z,1.10
2023-05-01T09:22:16.431Z,1.10
2023-05-01T09:23:16.419Z,1.00
2023-05-01T09:24:16.442Z,1.00
2023-05-01T09:25:16.421Z,1.20
2023-05-01T09:26:16.411Z,1.20
2023-05-01T09:27:16.465Z,1.10
2023-05-01T09:28:16.340Z,1.20
2023-05-01T09:29:16.334Z,1.10
2023-05-01T09:30:16.316Z,0.90
2023-05-01T09:31:16.326Z,1.10
2023-05-01T09:32:16.466Z,1.10
2023-05-01T09:33:16.368Z,1.00
2023-05-01T09:34:16.270Z,1.00
2023-05-01T09:35:16.274Z,0.90
2023-05-01T09:36:16.261Z,0.90
2023-05-01T09:37:16.222Z,0.90
2023-05-01T09:38:16.227Z,1.10
2023-05-01T09:39:16.206Z,1.20
2023-05-01T09:40:16.222Z,1.00
2023-05-01T09:41:16.201Z,1.00
2023-05-01T09:42:16.154Z,1.10
2023-05-01T09:43:16.169Z,1.30
2023-05-01T09:44:16.147Z,1.20
2023-05-01T09:45:16.212Z,1.00
2023-05-01T09:46:16.138Z,0.90
2023-05-01T09:47:16.095Z,1.00
2023-05-01T09:48:16.078Z,1.00
2023-05-01T09:49:16.093Z,0.90
2023-05-01T09:50:16.059Z,1.00
2023-05-01T09:51:16.110Z,1.00
2023-05-01T09:52:16.023Z,1.00
2023-05-01T09:53:16.022Z,0.90
2023-05-01T09:54:16.002Z,0.80
2023-05-01T09:55:16.005Z,0.80
2023-05-01T09:56:16.002Z,1.10
2023-05-01T09:57:16.051Z,1.00
2023-05-01T09:58:15.990Z,0.80
2023-05-01T09:59:15.947Z,0.90
2023-05-01T10:00:15.949Z,1.00
2023-05-01T10:01:15.923Z,1.00
2023-05-01T10:02:15.952Z,1.10
2023-05-01T10:03:15.975Z,1.00
2023-05-01T10:04:15.946Z,1.10
2023-05-01T10:05:15.897Z,0.90
2023-05-01T10:06:15.889Z,1.10
2023-05-01T10:07:15.847Z,0.80
2023-05-01T10:08:15.839Z,0.90
2023-05-01T10:09:15.853Z,0.80
2023-05-01T10:10:15.840Z,0.80
2023-05-01T10:11:15.844Z,1.00
2023-05-01T10:12:15.784Z,1.00
2023-05-01T10:13:15.764Z,0.90
2023-05-01T10:14:15.743Z,1.10
2023-05-01T10:15:24.631Z,1.10
2023-05-01T10:16:18.974Z,1.90
2023-05-01T10:17:15.858Z,1.90
2023-05-01T10:18:15.860Z,1.40
2023-05-01T10:19:15.719Z,1.20
2023-05-01T10:20:15.672Z,1.00
2023-05-01T10:21:15.672Z,1.00
2023-05-01T10:22:15.671Z,0.90
2023-05-01T10:23:15.653Z,0.80
2023-05-01T10:24:15.619Z,0.60
2023-05-01T10:25:15.632Z,0.80
2023-05-01T10:26:15.585Z,0.90
2023-05-01T10:27:15.616Z,0.90
2023-05-01T10:28:15.582Z,0.90
2023-05-01T10:29:15.549Z,1.00
2023-05-01T10:30:15.589Z,0.70
2023-05-01T10:31:15.560Z,1.10
2023-05-01T10:32:15.500Z,0.80
2023-05-01T10:33:15.586Z,0.60
2023-05-01T10:34:15.521Z,0.70
2023-05-01T10:35:15.493Z,0.80
2023-05-01T10:36:15.460Z,1.00
2023-05-01T10:37:15.481Z,0.90
2023-05-01T10:38:15.432Z,0.70
2023-05-01T10:39:15.427Z,0.80
2023-05-01T10:40:15.463Z,0.90
2023-05-01T10:41:15.383Z,0.90
2023-05-01T10:42:15.396Z,1.00
2023-05-01T10:43:15.413Z,1.10
2023-05-01T10:44:15.344Z,0.70
2023-05-01T10:45:15.358Z,1.00
2023-05-01T10:46:15.351Z,1.30
2023-05-01T10:47:15.299Z,1.40
2023-05-01T10:48:15.298Z,0.90
2023-05-01T10:49:15.288Z,0.90
2023-05-01T10:50:15.389Z,1.00
2023-05-01T10:51:15.254Z,0.70
2023-05-01T10:52:15.235Z,1.00
2023-05-01T10:53:15.232Z,1.00
2023-05-01T10:54:15.216Z,1.00
2023-05-01T10:55:15.277Z,1.10
2023-05-01T10:56:15.239Z,1.40
2023-05-01T10:57:15.180Z,1.00
2023-05-01T10:58:15.163Z,0.90
2023-05-01T10:59:15.151Z,1.00
2023-05-01T11:00:15.217Z,0.60
2023-05-01T11:01:15.204Z,1.10
2023-05-01T11:02:15.199Z,0.90
2023-05-01T11:03:15.142Z,1.40
2023-05-01T11:04:15.078Z,0.90
2023-05-01T11:05:15.178Z,0.90
2023-05-01T11:06:15.261Z,0.60
2023-05-01T11:07:15.217Z,0.90
2023-05-01T11:08:15.097Z,0.80
2023-05-01T11:09:15.044Z,0.50
2023-05-01T11:10:15.009Z,0.70
2023-05-01T11:11:15.021Z,0.80
2023-05-01T11:12:14.996Z,0.50
2023-05-01T11:13:14.965Z,0.80
2023-05-01T11:14:14.961Z,0.80
2023-05-01T11:15:14.955Z,0.60
2023-05-01T11:16:14.964Z,0.70
2023-05-01T11:17:15.115Z,0.70
2023-05-01T11:18:14.939Z,0.70
2023-05-01T11:19:14.892Z,0.90
2023-05-01T11:20:14.873Z,0.70
2023-05-01T11:21:14.862Z,0.90
2023-05-01T11:22:14.851Z,1.00
2023-05-01T11:23:14.866Z,0.90
2023-05-01T11:24:14.826Z,0.80
2023-05-01T11:25:14.807Z,0.80
2023-05-01T11:26:14.792Z,0.80
2023-05-01T11:27:14.774Z,0.90
2023-05-01T11:28:14.760Z,0.80
2023-05-01T11:29:14.801Z,0.80
2023-05-01T11:30:14.758Z,0.80
2023-05-01T11:31:14.771Z,0.70
2023-05-01T11:32:14.947Z,0.80
2023-05-01T11:33:14.755Z,0.80
2023-05-01T11:34:14.699Z,0.80
2023-05-01T11:35:14.672Z,0.70
2023-05-01T11:36:14.710Z,0.80
2023-05-01T11:37:14.664Z,1.10
2023-05-01T11:38:15.402Z,0.70
2023-05-01T11:39:14.636Z,0.90
2023-05-01T11:40:14.647Z,0.80
2023-05-01T11:41:14.623Z,0.50
2023-05-01T11:42:14.671Z,0.60
2023-05-01T11:43:14.568Z,0.60
2023-05-01T11:44:14.634Z,0.60
2023-05-01T11:45:14.581Z,0.90
2023-05-01T11:46:14.621Z,0.80
2023-05-01T11:47:14.575Z,0.70
2023-05-01T11:48:14.603Z,0.70
2023-05-01T11:49:14.497Z,0.80
2023-05-01T11:50:14.492Z,0.60
2023-05-01T11:51:14.505Z,0.70
2023-05-01T11:52:14.473Z,0.80
2023-05-01T11:53:14.480Z,0.60
2023-05-01T11:54:15.749Z,0.80
2023-05-01T11:55:14.478Z,0.70
2023-05-01T11:56:25.422Z,0.60
2023-05-01T11:57:15.387Z,0.90
2023-05-01T11:58:14.420Z,0.60
2023-05-01T11:59:14.364Z,0.80
2023-05-01T12:00:14.363Z,0.80
2023-05-01T12:01:14.363Z,0.70
2023-05-01T12:02:14.380Z,0.80
2023-05-01T12:03:14.902Z,0.90
2023-05-01T12:04:14.363Z,0.70
2023-05-01T12:05:14.303Z,0.90
2023-05-01T12:06:14.387Z,0.80
2023-05-01T12:07:14.279Z,0.60
2023-05-01T12:08:14.259Z,0.90
2023-05-01T12:09:14.258Z,0.80
2023-05-01T12:10:14.247Z,0.70
2023-05-01T12:11:14.218Z,0.80
2023-05-01T12:12:14.198Z,0.80
2023-05-01T12:13:14.193Z,0.70
2023-05-01T12:14:14.240Z,0.60
2023-05-01T12:15:14.162Z,0.80
2023-05-01T12:16:14.147Z,0.60
2023-05-01T12:17:14.191Z,0.70
2023-05-01T12:18:14.435Z,0.80
2023-05-01T12:19:14.142Z,0.80
2023-05-01T12:20:14.146Z,0.80
2023-05-01T12:21:14.080Z,0.70
2023-05-01T12:22:14.072Z,0.70
2023-05-01T12:23:14.068Z,0.80
2023-05-01T12:24:14.042Z,0.90
2023-05-01T12:25:14.034Z,0.80
2023-05-01T12:26:14.057Z,0.80
2023-05-01T12:27:14.003Z,1.00
2023-05-01T12:28:13.986Z,0.90
2023-05-01T12:29:14.027Z,1.00
2023-05-01T12:30:13.957Z,0.90
2023-05-01T12:31:14.012Z,1.00
2023-05-01T12:32:13.947Z,1.00
2023-05-01T12:33:13.978Z,0.70
2023-05-01T12:34:13.960Z,0.90
2023-05-01T12:35:13.898Z,0.80
2023-05-01T12:36:13.874Z,0.80
2023-05-01T12:37:13.916Z,1.00
2023-05-01T12:38:13.881Z,1.00
2023-05-01T12:39:13.841Z,0.80
2023-05-01T12:40:13.844Z,1.10
2023-05-01T12:41:13.825Z,0.70
2023-05-01T12:42:13.859Z,1.00
2023-05-01T12:43:13.792Z,0.90
2023-05-01T12:44:13.794Z,0.90
2023-05-01T12:45:13.753Z,0.80
2023-05-01T12:46:13.796Z,0.90
2023-05-01T12:47:13.744Z,1.10
2023-05-01T12:48:13.796Z,0.90
2023-05-01T12:49:13.702Z,1.00
2023-05-01T12:50:13.697Z,0.90
2023-05-01T12:51:13.702Z,1.10
2023-05-01T12:52:13.738Z,1.00
2023-05-01T12:53:13.652Z,1.00
2023-05-01T12:54:13.646Z,0.80
2023-05-01T12:55:13.623Z,1.10
2023-05-01T12:56:13.643Z,1.10
2023-05-01T12:57:13.644Z,0.80
2023-05-01T12:58:13.651Z,0.90
2023-05-01T12:59:13.862Z,1.20
2023-05-01T13:00:13.562Z,0.80
2023-05-01T13:01:13.629Z,0.90
2023-05-01T13:02:13.657Z,1.10
2023-05-01T13:03:13.639Z,0.90
2023-05-01T13:04:13.545Z,0.80
2023-05-01T13:05:13.521Z,0.90
2023-05-01T13:06:13.520Z,0.90
2023-05-01T13:07:13.480Z,0.90
2023-05-01T13:08:13.467Z,0.90
2023-05-01T13:09:13.457Z,1.00
2023-05-01T13:10:13.454Z,0.90
2023-05-01T13:11:13.582Z,0.70
2023-05-01T13:12:13.416Z,0.70
2023-05-01T13:13:13.406Z,0.70
2023-05-01T13:14:13.431Z,0.80
2023-05-01T13:15:13.365Z,0.90
2023-05-01T13:16:13.405Z,0.80
2023-05-01T13:17:13.332Z,0.90
2023-05-01T13:18:13.368Z,0.90